createdAt,value
2018-03-07T00:02:25.749Z,90.30
2018-03-07T00:04:53.333Z,90.30
2018-03-07T00:07:20.942Z,90.40
2018-03-07T00:09:49.307Z,90.10
2018-03-07T00:12:17.704Z,89.40
2018-03-07T00:14:46.999Z,89.50
2018-03-07T00:17:14.590Z,89.50
2018-03-07T00:19:42.190Z,90.00
2018-03-07T00:22:09.774Z,89.70
2018-03-07T00:24:37.343Z,89.40
2018-03-07T00:27:04.896Z,89.30
2018-03-07T00:29:32.538Z,89.00
2018-03-07T00:32:00.112Z,89.40
2018-03-07T00:34:27.842Z,88.90
2018-03-07T00:36:55.413Z,89.20
2018-03-07T00:39:23.024Z,89.60
2018-03-07T00:41:50.585Z,89.80
2018-03-07T00:44:18.189Z,89.20
2018-03-07T00:46:47.145Z,90.30
2018-03-07T00:49:14.713Z,90.20
2018-03-07T00:51:42.274Z,90.00
2018-03-07T00:54:09.848Z,90.00
2018-03-07T00:56:37.427Z,89.60
2018-03-07T00:59:04.998Z,89.40
2018-03-07T01:01:32.603Z,89.90
2018-03-07T01:04:00.178Z,90.00
2018-03-07T01:06:27.778Z,90.10
2018-03-07T01:08:55.336Z,89.80
2018-03-07T01:11:22.936Z,89.30
2018-03-07T01:13:51.272Z,89.50
2018-03-07T01:16:18.846Z,89.40
2018-03-07T01:18:46.436Z,89.60
2018-03-07T01:21:14.018Z,89.50
2018-03-07T01:23:42.367Z,89.50
2018-03-07T01:26:09.923Z,89.50
2018-03-07T01:28:37.514Z,89.80
2018-03-07T01:31:05.112Z,90.00
2018-03-07T01:33:32.678Z,90.00
2018-03-07T01:36:00.255Z,90.00
2018-03-07T01:38:28.714Z,89.80
2018-03-07T01:40:57.103Z,90.00
2018-03-07T01:43:24.671Z,90.00
2018-03-07T01:45:52.247Z,90.10
2018-03-07T01:48:19.813Z,90.20
2018-03-07T01:50:47.402Z,90.20
2018-03-07T01:53:14.998Z,90.20
2018-03-07T01:55:42.557Z,90.30
2018-03-07T01:58:10.171Z,90.00
2018-03-07T02:00:37.739Z,89.80
2018-03-07T02:03:05.330Z,90.10
2018-03-07T02:05:32.918Z,90.10
2018-03-07T02:08:00.513Z,89.90
2018-03-07T02:10:28.871Z,90.00
2018-03-07T02:12:56.425Z,89.90
2018-03-07T02:15:23.991Z,90.20
2018-03-07T02:17:51.561Z,90.10
2018-03-07T02:20:19.737Z,90.00
2018-03-07T02:22:47.313Z,90.10
2018-03-07T02:25:14.900Z,90.20
2018-03-07T02:27:42.490Z,90.40
2018-03-07T02:30:10.055Z,90.30
2018-03-07T02:32:37.627Z,90.40
2018-03-07T02:35:05.189Z,90.00
2018-03-07T02:37:32.780Z,89.50
2018-03-07T02:40:00.363Z,89.70
2018-03-07T02:42:27.959Z,89.40
2018-03-07T02:44:55.539Z,90.10
2018-03-07T02:47:23.105Z,90.00
2018-03-07T02:49:51.453Z,90.30
2018-03-07T02:52:19.031Z,90.30
2018-03-07T02:54:47.371Z,90.30
2018-03-07T02:57:15.871Z,90.20
2018-03-07T02:59:44.221Z,90.10
2018-03-07T03:02:11.822Z,90.10
2018-03-07T03:04:39.402Z,90.40
2018-03-07T03:07:07.743Z,90.20
2018-03-07T03:09:35.355Z,90.10
2018-03-07T03:12:03.501Z,90.10
2018-03-07T03:14:31.096Z,90.10
2018-03-07T03:16:59.459Z,90.50
2018-03-07T03:19:27.019Z,90.50
2018-03-07T03:21:54.590Z,90.80
2018-03-07T03:24:22.202Z,90.80
2018-03-07T03:26:49.768Z,90.80
2018-03-07T03:29:17.342Z,90.90
2018-03-07T03:31:44.896Z,91.00
2018-03-07T03:34:12.501Z,90.90
2018-03-07T03:36:40.092Z,90.70
2018-03-07T03:39:08.451Z,90.60
2018-03-07T03:41:36.041Z,90.60
2018-03-07T03:44:05.102Z,90.90
2018-03-07T03:46:32.681Z,90.70
2018-03-07T03:49:00.272Z,90.50
2018-03-07T03:51:28.619Z,90.70
2018-03-07T03:53:56.217Z,90.70
2018-03-07T03:56:24.554Z,90.90
2018-03-07T03:58:52.123Z,90.80
2018-03-07T04:01:19.698Z,90.70
2018-03-07T04:03:47.264Z,90.50
2018-03-07T04:06:14.891Z,90.90
2018-03-07T04:08:42.473Z,91.00
2018-03-07T04:11:10.058Z,91.10
2018-03-07T04:13:38.343Z,90.80
2018-03-07T04:16:06.242Z,91.10
2018-03-07T04:18:34.576Z,91.20
2018-03-07T04:21:02.996Z,91.20
2018-03-07T04:23:30.584Z,91.30
2018-03-07T04:25:58.945Z,91.20
2018-03-07T04:28:27.296Z,91.30
2018-03-07T04:30:54.867Z,91.20
2018-03-07T04:33:22.433Z,91.30
2018-03-07T04:35:50.017Z,91.50
2018-03-07T04:38:17.617Z,91.20
2018-03-07T04:40:45.190Z,91.10
2018-03-07T04:43:12.777Z,91.30
2018-03-07T04:45:40.369Z,91.30
2018-03-07T04:48:07.947Z,91.20
2018-03-07T04:50:36.294Z,91.20
2018-03-07T04:53:03.875Z,91.20
2018-03-07T04:55:31.440Z,91.40
2018-03-07T04:57:59.014Z,91.50
2018-03-07T05:00:27.386Z,91.80
2018-03-07T05:02:54.978Z,91.70
2018-03-07T05:05:23.347Z,92.40
2018-03-07T05:07:50.922Z,92.40
2018-03-07T05:10:18.596Z,92.80
2018-03-07T05:12:47.298Z,93.70
2018-03-07T05:15:14.892Z,93.70
2018-03-07T05:17:42.461Z,93.40
2018-03-07T05:20:10.041Z,93.00
2018-03-07T05:22:37.941Z,92.90
2018-03-07T05:25:05.536Z,92.90
2018-03-07T05:27:33.113Z,92.70
2018-03-07T05:30:00.700Z,92.80
2018-03-07T05:32:28.273Z,93.00
2018-03-07T05:34:55.840Z,93.20
2018-03-07T05:37:23.393Z,92.90
2018-03-07T05:39:50.972Z,93.00
2018-03-07T05:42:18.540Z,92.90
2018-03-07T05:44:46.136Z,92.90
2018-03-07T05:47:14.475Z,93.00
2018-03-07T05:49:42.045Z,93.00
2018-03-07T05:52:09.630Z,92.90
2018-03-07T05:54:37.219Z,92.80
2018-03-07T05:57:04.789Z,93.00
2018-03-07T05:59:33.131Z,93.40
2018-03-07T06:02:00.752Z,93.40
2018-03-07T06:04:28.337Z,93.60
2018-03-07T06:06:55.971Z,93.40
2018-03-07T06:09:23.497Z,93.10
2018-03-07T06:11:51.101Z,93.00
2018-03-07T06:14:18.781Z,93.20
2018-03-07T06:16:46.360Z,92.90
2018-03-07T06:19:13.934Z,92.80
2018-03-07T06:21:41.510Z,92.70
2018-03-07T06:24:09.498Z,92.50
2018-03-07T06:26:37.080Z,92.20
2018-03-07T06:29:04.659Z,92.00
2018-03-07T06:31:33.003Z,92.20
2018-03-07T06:34:00.587Z,92.20
2018-03-07T06:36:29.048Z,92.60
2018-03-07T06:38:56.649Z,92.40
2018-03-07T06:41:24.979Z,92.40
2018-03-07T06:43:52.555Z,92.30
2018-03-07T06:46:20.150Z,92.30
2018-03-07T06:48:47.718Z,92.20
2018-03-07T06:51:15.307Z,92.10
2018-03-07T06:53:42.927Z,92.10
2018-03-07T06:56:10.585Z,92.30
2018-03-07T06:58:38.194Z,92.30
2018-03-07T07:01:05.801Z,92.10
2018-03-07T07:03:33.378Z,92.00
2018-03-07T07:06:00.944Z,91.90
2018-03-07T07:08:28.524Z,91.60
2018-03-07T07:10:56.083Z,91.90
2018-03-07T07:13:23.655Z,91.80
2018-03-07T07:15:51.228Z,91.80
2018-03-07T07:18:18.811Z,91.80
2018-03-07T07:20:48.180Z,92.00
2018-03-07T07:23:15.748Z,92.00
2018-03-07T07:25:43.345Z,92.00
2018-03-07T07:28:10.919Z,91.70
2018-03-07T07:30:39.243Z,91.60
2018-03-07T07:33:06.807Z,91.60
2018-03-07T07:35:34.852Z,91.50
2018-03-07T07:38:02.453Z,91.50
2018-03-07T07:40:30.028Z,91.30
2018-03-07T07:42:57.635Z,91.30
2018-03-07T07:45:25.991Z,91.30
2018-03-07T07:47:53.578Z,91.30
2018-03-07T07:50:21.986Z,91.30
2018-03-07T07:52:50.008Z,91.30
2018-03-07T07:55:17.658Z,91.30
2018-03-07T07:57:45.232Z,91.00
2018-03-07T08:00:12.841Z,90.70
2018-03-07T08:02:41.301Z,90.60
2018-03-07T08:05:08.904Z,90.60
2018-03-07T08:07:36.482Z,90.70
2018-03-07T08:10:04.099Z,90.50
2018-03-07T08:12:31.709Z,90.40
2018-03-07T08:14:59.309Z,90.60
2018-03-07T08:17:26.897Z,90.50
2018-03-07T08:19:54.536Z,90.60
2018-03-07T08:22:23.099Z,90.70
2018-03-07T08:24:51.606Z,90.80
2018-03-07T08:27:19.308Z,90.70
2018-03-07T08:29:46.916Z,90.40
2018-03-07T08:32:14.520Z,90.20
2018-03-07T08:34:42.096Z,90.20
2018-03-07T08:37:09.707Z,90.10
2018-03-07T08:39:37.792Z,90.00
2018-03-07T08:42:05.380Z,89.90
2018-03-07T08:44:33.016Z,89.50
2018-03-07T08:47:00.602Z,89.40
2018-03-07T08:49:28.209Z,89.50
2018-03-07T08:51:56.567Z,89.00
2018-03-07T08:54:24.137Z,89.50
2018-03-07T08:56:51.749Z,88.90
2018-03-07T08:59:19.327Z,88.70
2018-03-07T09:01:46.927Z,87.70
2018-03-07T09:04:14.504Z,87.70
2018-03-07T09:06:42.126Z,86.90
2018-03-07T09:09:09.756Z,86.20
2018-03-07T09:11:38.114Z,86.00
2018-03-07T09:14:05.705Z,86.00
2018-03-07T09:16:33.295Z,86.40
2018-03-07T09:19:00.884Z,85.70
2018-03-07T09:21:28.510Z,85.30
2018-03-07T09:23:56.886Z,84.60
2018-03-07T09:26:25.218Z,84.90
2018-03-07T09:28:52.816Z,84.80
2018-03-07T09:31:20.405Z,84.90
2018-03-07T09:33:49.466Z,84.70
2018-03-07T09:36:17.091Z,84.60
2018-03-07T09:38:44.674Z,84.30
2018-03-07T09:41:12.258Z,84.80
2018-03-07T09:43:39.853Z,84.60
2018-03-07T09:46:08.211Z,84.90
2018-03-07T09:48:35.805Z,84.80
2018-03-07T09:51:03.406Z,83.70
2018-03-07T09:53:31.017Z,83.10
2018-03-07T09:55:58.619Z,82.00
2018-03-07T09:58:26.282Z,81.80
2018-03-07T10:00:53.852Z,81.70
2018-03-07T10:03:21.464Z,81.30
2018-03-07T10:05:49.044Z,81.20
2018-03-07T10:08:16.645Z,80.70
2018-03-07T10:10:44.799Z,80.80
2018-03-07T10:13:12.381Z,80.80
2018-03-07T10:15:40.719Z,80.10
2018-03-07T10:18:08.314Z,80.10
2018-03-07T10:20:37.421Z,79.50
2018-03-07T10:23:05.811Z,79.20
2018-03-07T10:25:33.412Z,79.20
2018-03-07T10:28:01.010Z,79.10
2018-03-07T10:30:28.623Z,77.60
2018-03-07T10:32:56.219Z,77.10
2018-03-07T10:35:23.832Z,77.30
2018-03-07T10:37:53.092Z,76.50
2018-03-07T10:40:20.694Z,76.40
2018-03-07T10:42:48.487Z,75.10
2018-03-07T10:45:16.092Z,74.10
2018-03-07T10:47:43.728Z,73.10
2018-03-07T10:50:11.302Z,73.20
2018-03-07T10:52:38.866Z,72.30
2018-03-07T10:55:06.448Z,72.60
2018-03-07T10:57:34.083Z,71.30
2018-03-07T11:00:01.701Z,69.90
2018-03-07T11:02:29.363Z,70.20
2018-03-07T11:04:56.934Z,69.00
2018-03-07T11:07:24.687Z,69.20
2018-03-07T11:09:52.297Z,69.10
2018-03-07T11:12:20.663Z,68.30
2018-03-07T11:14:49.096Z,68.20
2018-03-07T11:17:16.670Z,67.10
2018-03-07T11:19:44.232Z,67.00
2018-03-07T11:22:11.801Z,68.00
2018-03-07T11:24:40.209Z,68.50
2018-03-07T11:27:08.770Z,70.10
2018-03-07T11:29:37.254Z,69.90
2018-03-07T11:32:04.872Z,70.60
2018-03-07T11:34:33.228Z,71.20
2018-03-07T11:37:00.859Z,71.10
2018-03-07T11:39:28.469Z,71.50
2018-03-07T11:41:56.039Z,71.20
2018-03-07T11:44:23.619Z,71.30
2018-03-07T11:46:51.967Z,71.00
2018-03-07T11:49:19.569Z,70.90
2018-03-07T11:51:47.161Z,69.80
2018-03-07T11:54:15.528Z,69.10
2018-03-07T11:56:43.107Z,69.10
2018-03-07T11:59:10.766Z,70.00
2018-03-07T12:01:38.336Z,68.50
2018-03-07T12:04:06.265Z,68.80
2018-03-07T12:06:33.826Z,69.30
2018-03-07T12:09:01.397Z,69.40
2018-03-07T12:11:28.992Z,68.70
2018-03-07T12:13:56.592Z,70.00
2018-03-07T12:16:24.202Z,69.40
2018-03-07T12:18:51.780Z,69.50
2018-03-07T12:21:20.114Z,70.00
2018-03-07T12:23:47.674Z,69.90
2018-03-07T12:26:15.239Z,69.50
2018-03-07T12:28:42.829Z,69.80
2018-03-07T12:31:10.413Z,69.40
2018-03-07T12:33:37.978Z,69.40
2018-03-07T12:36:06.397Z,69.80
2018-03-07T12:38:33.989Z,69.80
2018-03-07T12:41:01.571Z,68.50
2018-03-07T12:43:29.176Z,70.20
2018-03-07T12:45:56.753Z,70.90
2018-03-07T12:48:24.368Z,69.60
2018-03-07T12:50:51.960Z,69.00
2018-03-07T12:53:20.317Z,70.10
2018-03-07T12:55:47.886Z,70.10
2018-03-07T12:58:15.460Z,70.00
2018-03-07T13:00:43.800Z,70.00
2018-03-07T13:03:11.373Z,70.00
2018-03-07T13:05:38.946Z,69.80
2018-03-07T13:08:06.513Z,71.20
2018-03-07T13:10:34.118Z,70.90
2018-03-07T13:13:01.720Z,71.50
2018-03-07T13:15:29.295Z,72.00
2018-03-07T13:17:56.873Z,72.20
2018-03-07T13:20:24.467Z,72.80
2018-03-07T13:22:52.803Z,73.40
2018-03-07T13:25:20.375Z,73.30
2018-03-07T13:27:47.982Z,74.30
2018-03-07T13:30:16.374Z,74.60
2018-03-07T13:32:44.711Z,75.00
2018-03-07T13:35:12.305Z,74.90
2018-03-07T13:37:40.644Z,75.20
2018-03-07T13:40:08.225Z,75.10
2018-03-07T13:42:35.809Z,75.70
2018-03-07T13:45:03.420Z,76.60
2018-03-07T13:47:31.008Z,75.80
2018-03-07T13:49:58.567Z,76.30
2018-03-07T13:52:26.128Z,76.60
2018-03-07T13:54:53.746Z,77.80
2018-03-07T13:57:22.085Z,77.30
2018-03-07T13:59:49.672Z,77.20
2018-03-07T14:02:18.916Z,77.40
2018-03-07T14:04:46.544Z,77.40
2018-03-07T14:07:15.909Z,77.40
2018-03-07T14:09:44.457Z,77.30
2018-03-07T14:12:12.823Z,78.20
2018-03-07T14:14:41.190Z,78.30
2018-03-07T14:17:08.854Z,78.30
2018-03-07T14:19:37.054Z,79.20
2018-03-07T14:22:05.424Z,79.00
2018-03-07T14:24:33.024Z,79.00
2018-03-07T14:27:00.632Z,79.30
2018-03-07T14:29:28.235Z,78.80
2018-03-07T14:31:56.594Z,79.60
2018-03-07T14:34:24.215Z,79.50
2018-03-07T14:36:51.804Z,80.20
2018-03-07T14:39:19.386Z,80.30
2018-03-07T14:41:47.000Z,80.50
2018-03-07T14:44:14.570Z,81.10
2018-03-07T14:46:42.235Z,81.50
2018-03-07T14:49:09.820Z,81.60
2018-03-07T14:51:37.422Z,81.80
2018-03-07T14:54:05.007Z,82.10
2018-03-07T14:56:32.781Z,82.20
2018-03-07T14:59:00.476Z,81.80
2018-03-07T15:01:28.084Z,81.90
2018-03-07T15:03:55.674Z,82.10
2018-03-07T15:06:23.272Z,82.20
2018-03-07T15:08:51.626Z,82.50
2018-03-07T15:11:19.966Z,82.90
2018-03-07T15:13:47.586Z,82.90
2018-03-07T15:16:15.159Z,82.90
2018-03-07T15:18:42.753Z,83.30
2018-03-07T15:21:10.403Z,83.50
2018-03-07T15:23:38.070Z,84.10
2018-03-07T15:26:05.665Z,84.50
2018-03-07T15:28:33.284Z,84.50
2018-03-07T15:31:00.899Z,84.60
2018-03-07T15:33:28.495Z,85.00
2018-03-07T15:35:56.081Z,85.50
2018-03-07T15:38:23.671Z,86.50
2018-03-07T15:40:51.308Z,85.90
2018-03-07T15:43:18.907Z,86.60
2018-03-07T15:45:46.474Z,86.70
2018-03-07T15:48:14.072Z,86.90
2018-03-07T15:50:41.672Z,87.30
2018-03-07T15:53:09.279Z,87.50
2018-03-07T15:55:36.854Z,87.70
2018-03-07T15:58:05.048Z,87.90
2018-03-07T16:00:32.663Z,88.10
2018-03-07T16:03:00.245Z,88.20
2018-03-07T16:05:27.829Z,88.10
2018-03-07T16:07:55.431Z,88.10
2018-03-07T16:10:23.780Z,88.40
2018-03-07T16:12:51.374Z,88.40
2018-03-07T16:15:18.976Z,87.80
2018-03-07T16:17:46.589Z,88.00
2018-03-07T16:20:14.195Z,87.80
2018-03-07T16:22:41.811Z,87.90
2018-03-07T16:25:09.380Z,88.10
2018-03-07T16:27:36.981Z,88.10
2018-03-07T16:30:06.048Z,88.00
2018-03-07T16:32:33.643Z,88.00
2018-03-07T16:35:01.804Z,87.90
2018-03-07T16:37:29.424Z,87.80
2018-03-07T16:39:56.996Z,88.10
2018-03-07T16:42:24.638Z,88.10
2018-03-07T16:44:52.204Z,88.70
2018-03-07T16:47:19.801Z,88.60
2018-03-07T16:49:47.370Z,88.30
2018-03-07T16:52:14.939Z,87.40
2018-03-07T16:54:42.519Z,86.60
2018-03-07T16:57:10.084Z,87.20
2018-03-07T16:59:37.677Z,87.10
2018-03-07T17:02:05.275Z,87.10
2018-03-07T17:04:32.882Z,87.10
2018-03-07T17:07:00.632Z,85.60
2018-03-07T17:09:28.977Z,83.40
2018-03-07T17:11:56.541Z,83.30
2018-03-07T17:14:24.867Z,83.90
2018-03-07T17:16:52.433Z,83.80
2018-03-07T17:19:20.040Z,83.50
2018-03-07T17:21:47.646Z,83.80
2018-03-07T17:24:15.219Z,84.50
2018-03-07T17:26:42.790Z,84.20
2018-03-07T17:29:10.364Z,84.00
2018-03-07T17:31:37.955Z,84.30
2018-03-07T17:34:07.098Z,85.00
2018-03-07T17:36:34.775Z,85.00
2018-03-07T17:39:02.344Z,85.30
2018-03-07T17:41:29.982Z,85.00
2018-03-07T17:43:57.568Z,85.20
2018-03-07T17:46:25.175Z,85.70
2018-03-07T17:48:52.792Z,86.20
2018-03-07T17:51:20.395Z,86.40
2018-03-07T17:53:48.752Z,87.10
2018-03-07T17:56:16.339Z,87.10
2018-03-07T17:58:44.699Z,88.70
2018-03-07T18:01:12.308Z,88.70
2018-03-07T18:03:40.635Z,89.80
2018-03-07T18:06:08.203Z,89.70
2018-03-07T18:08:35.831Z,90.00
2018-03-07T18:11:03.393Z,90.00
2018-03-07T18:13:31.050Z,90.10
2018-03-07T18:15:59.399Z,90.30
2018-03-07T18:18:26.973Z,90.30
2018-03-07T18:20:54.537Z,90.20
2018-03-07T18:23:22.107Z,90.30
2018-03-07T18:25:49.708Z,90.30
2018-03-07T18:28:17.280Z,90.30
2018-03-07T18:30:45.585Z,90.20
2018-03-07T18:33:13.177Z,90.20
2018-03-07T18:35:40.765Z,90.10
2018-03-07T18:38:09.119Z,89.90
2018-03-07T18:40:36.794Z,89.90
2018-03-07T18:43:04.414Z,89.70
2018-03-07T18:45:32.034Z,89.60
2018-03-07T18:47:59.626Z,89.90
2018-03-07T18:50:27.240Z,90.00
2018-03-07T18:52:54.820Z,90.20
2018-03-07T18:55:22.408Z,90.10
2018-03-07T18:57:50.140Z,90.30
2018-03-07T19:00:17.741Z,90.40
2018-03-07T19:02:45.341Z,90.40
2018-03-07T19:05:13.800Z,90.60
2018-03-07T19:07:41.381Z,90.70
2018-03-07T19:10:08.965Z,90.80
2018-03-07T19:12:36.536Z,91.00
2018-03-07T19:15:06.015Z,91.00
2018-03-07T19:17:33.617Z,90.90
2018-03-07T19:20:01.188Z,91.00
2018-03-07T19:22:28.785Z,91.10
2018-03-07T19:24:57.138Z,91.20
2018-03-07T19:27:24.780Z,91.20
2018-03-07T19:29:52.372Z,91.30
2018-03-07T19:32:19.977Z,91.30
2018-03-07T19:34:48.358Z,91.30
2018-03-07T19:37:16.738Z,91.30
2018-03-07T19:39:45.110Z,91.60
2018-03-07T19:42:13.484Z,91.60
2018-03-07T19:44:41.073Z,91.50
2018-03-07T19:47:09.440Z,91.70
2018-03-07T19:49:37.039Z,91.70
2018-03-07T19:52:04.669Z,91.80
2018-03-07T19:54:33.011Z,92.30
2018-03-07T19:57:01.335Z,92.00
2018-03-07T19:59:28.973Z,92.00
2018-03-07T20:01:56.576Z,92.20
2018-03-07T20:04:24.930Z,91.80
2018-03-07T20:06:53.106Z,91.80
2018-03-07T20:09:21.314Z,91.60
2018-03-07T20:11:49.459Z,91.70
2018-03-07T20:14:17.047Z,91.50
2018-03-07T20:16:45.459Z,91.70
2018-03-07T20:19:13.656Z,91.70
2018-03-07T20:21:41.269Z,91.60
2018-03-07T20:24:08.873Z,91.50
2018-03-07T20:26:36.437Z,91.60
2018-03-07T20:29:04.057Z,91.70
2018-03-07T20:31:31.675Z,91.70
2018-03-07T20:33:59.373Z,91.50
2018-03-07T20:36:26.959Z,91.60
2018-03-07T20:38:54.554Z,91.70
2018-03-07T20:41:22.917Z,91.60
2018-03-07T20:43:50.533Z,91.60
2018-03-07T20:46:18.103Z,91.80
2018-03-07T20:48:45.714Z,92.00
2018-03-07T20:51:13.342Z,92.10
2018-03-07T20:53:40.947Z,92.10
2018-03-07T20:56:09.300Z,92.00
2018-03-07T20:58:36.877Z,92.00
2018-03-07T21:01:05.283Z,92.10
2018-03-07T21:03:33.652Z,92.20
2018-03-07T21:06:01.228Z,92.20
2018-03-07T21:08:29.576Z,92.50
2018-03-07T21:10:57.186Z,92.50
2018-03-07T21:13:25.534Z,92.60
2018-03-07T21:15:53.787Z,92.60
2018-03-07T21:18:21.389Z,92.70
2018-03-07T21:20:49.007Z,92.90
2018-03-07T21:23:16.624Z,92.80
2018-03-07T21:25:44.280Z,92.90
2018-03-07T21:28:11.859Z,93.00
2018-03-07T21:30:39.460Z,92.90
2018-03-07T21:33:07.098Z,92.90
2018-03-07T21:35:34.667Z,92.80
2018-03-07T21:38:02.274Z,92.80
2018-03-07T21:40:29.834Z,92.40
2018-03-07T21:42:58.183Z,92.40
2018-03-07T21:45:25.774Z,92.40
2018-03-07T21:47:53.341Z,92.30
2018-03-07T21:50:20.957Z,92.20
2018-03-07T21:52:49.324Z,92.50
2018-03-07T21:55:16.946Z,92.50
2018-03-07T21:57:44.536Z,92.30
2018-03-07T22:00:12.127Z,92.50
2018-03-07T22:02:40.507Z,92.50
2018-03-07T22:05:09.016Z,92.70
2018-03-07T22:07:37.377Z,93.00
2018-03-07T22:10:04.956Z,92.60
2018-03-07T22:12:32.539Z,92.80
2018-03-07T22:15:00.919Z,92.70
2018-03-07T22:17:29.957Z,92.60
2018-03-07T22:19:58.317Z,92.60
2018-03-07T22:22:25.892Z,92.70
2018-03-07T22:24:53.608Z,92.60
2018-03-07T22:27:21.220Z,92.70
2018-03-07T22:29:48.824Z,92.80
2018-03-07T22:32:16.419Z,92.70
2018-03-07T22:34:44.020Z,92.80
2018-03-07T22:37:11.598Z,92.70
2018-03-07T22:39:39.196Z,92.60
2018-03-07T22:42:06.808Z,92.50
2018-03-07T22:44:34.390Z,92.50
2018-03-07T22:47:01.983Z,92.40
2018-03-07T22:49:29.582Z,92.50
2018-03-07T22:51:57.160Z,92.50
2018-03-07T22:54:25.548Z,92.40
2018-03-07T22:56:53.864Z,92.40
2018-03-07T22:59:22.252Z,92.40
2018-03-07T23:01:49.834Z,92.40
2018-03-07T23:04:17.390Z,92.40
2018-03-07T23:06:44.956Z,92.40
2018-03-07T23:09:12.542Z,92.40
2018-03-07T23:11:40.124Z,92.40
2018-03-07T23:14:08.476Z,92.30
2018-03-07T23:16:36.077Z,92.30
2018-03-07T23:19:04.412Z,92.30
2018-03-07T23:21:32.493Z,92.30
2018-03-07T23:24:00.103Z,92.40
2018-03-07T23:26:28.925Z,92.50
2018-03-07T23:28:56.530Z,92.50
2018-03-07T23:31:24.895Z,92.40
2018-03-07T23:33:52.471Z,92.40
2018-03-07T23:36:20.032Z,92.60
2018-03-07T23:38:47.615Z,92.50
2018-03-07T23:41:15.214Z,92.70
2018-03-07T23:43:42.817Z,92.70
2018-03-07T23:46:10.381Z,92.60
2018-03-07T23:48:37.948Z,92.70
2018-03-07T23:51:05.516Z,93.00
2018-03-07T23:53:33.097Z,92.50
2018-03-07T23:56:00.662Z,92.60
2018-03-07T23:58:28.261Z,92.60
